Time;durP1;ratioP1;P1;durP2;ratioP2;P2;SDS_P1;SDS_P2;PMS_P1;PMS_P2;Temp;Humidity;BMP_temperature;BMP_pressure;BME280_temperature;BME280_humidity;BME280_pressure;Samples;Min_cycle;Max_cycle;Signal;HPM_P1;HPM_P2
2023/06/08 00:00:50;;;;;;;1999.90;999.90;;;12.30;73.30;;;;;;5016225;28;20026;-89
2023/06/08 00:03:19;;;;;;;1999.90;999.90;;;12.10;74.10;;;;;;5038480;28;20112;-88
2023/06/08 00:05:49;;;;;;;1999.90;999.90;;;12.10;74.90;;;;;;5034213;28;20037;-88
2023/06/08 00:08:16;;;;;;;1999.90;999.90;;;12.10;75.00;;;;;;5038689;28;20059;-89
2023/06/08 00:10:45;;;;;;;1999.90;999.90;;;12.00;75.00;;;;;;5032488;28;20385;-89
2023/06/08 00:13:12;;;;;;;1999.90;999.90;;;12.10;74.50;;;;;;5033318;28;20040;-88
2023/06/08 00:15:39;;;;;;;1999.90;999.90;;;12.10;74.10;;;;;;5033500;28;20037;-88
2023/06/08 00:18:08;;;;;;;1999.90;999.90;;;12.10;74.50;;;;;;5036875;28;20508;-88
2023/06/08 00:20:39;;;;;;;1999.90;999.90;;;12.30;73.30;;;;;;5037663;28;20102;-89
2023/06/08 00:23:04;;;;;;;;;;;12.20;73.40;;;;;;5022299;28;20033;-89
2023/06/08 00:25:31;;;;;;;1999.90;999.90;;;12.20;74.60;;;;;;5031673;28;19917;-89
2023/06/08 00:27:56;;;;;;;1999.90;999.90;;;12.20;73.90;;;;;;5039425;28;20057;-91
2023/06/08 00:30:22;;;;;;;1999.90;999.90;;;12.10;74.60;;;;;;5037206;28;20061;-89
2023/06/08 00:32:48;;;;;;;1999.90;999.90;;;12.10;74.70;;;;;;5031015;28;20037;-89
2023/06/08 00:35:14;;;;;;;1999.90;999.90;;;11.90;75.40;;;;;;5054474;28;20041;-88
2023/06/08 00:37:40;;;;;;;1999.90;999.90;;;11.90;75.70;;;;;;5050539;28;20033;-88
2023/06/08 00:40:07;;;;;;;1999.90;999.90;;;11.90;76.20;;;;;;5033963;28;20034;-87
2023/06/08 00:42:32;;;;;;;1999.90;999.90;;;11.90;76.00;;;;;;5032054;28;20164;-88
2023/06/08 00:44:58;;;;;;;1999.90;999.90;;;11.90;76.10;;;;;;5035025;28;20128;-89
2023/06/08 00:47:25;;;;;;;1999.90;999.90;;;11.80;76.50;;;;;;5034059;28;20037;-88
2023/06/08 00:49:51;;;;;;;1999.90;999.90;;;11.70;76.90;;;;;;5035216;28;20041;-89
2023/06/08 00:52:20;;;;;;;1999.90;999.90;;;11.60;77.40;;;;;;5028589;28;20030;-88
2023/06/08 00:54:48;;;;;;;1999.90;999.90;;;11.40;76.90;;;;;;5055113;28;20389;-88
2023/06/08 00:57:18;;;;;;;1999.90;999.90;;;11.40;77.60;;;;;;5029418;28;20698;-89
2023/06/08 00:59:49;;;;;;;1999.90;999.90;;;11.30;77.60;;;;;;5034981;28;20477;-89
2023/06/08 01:02:16;;;;;;;1999.90;999.90;;;11.30;77.90;;;;;;5028661;28;20381;-89
2023/06/08 01:04:42;;;;;;;1999.90;999.90;;;11.20;78.20;;;;;;5028332;28;20032;-90
2023/06/08 01:07:19;;;;;;;1999.90;999.90;;;11.20;78.90;;;;;;5035974;28;20057;-89
2023/06/08 01:10:13;;;;;;;1999.90;999.90;;;11.10;78.80;;;;;;5027476;28;20036;-90
2023/06/08 01:12:41;;;;;;;1999.90;999.90;;;11.20;79.10;;;;;;5042590;28;20047;-90
2023/06/08 01:15:10;;;;;;;1999.90;999.90;;;11.20;79.10;;;;;;5036950;28;20041;-88
2023/06/08 01:17:48;;;;;;;1999.90;999.90;;;11.10;79.20;;;;;;5030387;28;20128;-89
2023/06/08 01:20:41;;;;;;;1999.90;999.90;;;11.20;79.40;;;;;;5031679;28;20091;-89
2023/06/08 01:23:34;;;;;;;1999.90;999.90;;;11.20;79.40;;;;;;5040876;28;20048;-89
2023/06/08 01:26:00;;;;;;;1999.90;999.90;;;11.20;80.00;;;;;;5039395;28;20025;-90
2023/06/08 01:28:28;;;;;;;1999.90;999.90;;;11.10;79.60;;;;;;5032781;28;20059;-88
2023/06/08 01:30:55;;;;;;;1999.90;999.90;;;11.00;79.50;;;;;;5034862;28;20377;-90
2023/06/08 01:33:24;;;;;;;1999.90;999.90;;;11.00;79.90;;;;;;5016635;28;20064;-89
2023/06/08 01:36:15;;;;;;;1999.90;999.90;;;11.10;79.40;;;;;;5040279;28;20184;-88
2023/06/08 01:38:40;;;;;;;;;;;11.00;80.40;;;;;;5043660;28;20035;-89
2023/06/08 01:41:11;;;;;;;798.67;749.65;;;11.00;79.60;;;;;;5037050;28;20004;-90
2023/06/08 01:43:37;;;;;;;;;;;11.00;80.10;;;;;;5036994;28;20116;-90
2023/06/08 01:46:09;;;;;;;1085.75;798.88;;;10.80;79.60;;;;;;5043728;28;20004;-89
2023/06/08 01:48:38;;;;;;;1999.90;999.90;;;10.90;81.00;;;;;;5037241;28;20103;-88
2023/06/08 01:51:05;;;;;;;1999.90;999.90;;;10.80;81.00;;;;;;5040300;28;20033;-89
2023/06/08 01:53:31;;;;;;;1999.90;999.90;;;10.90;80.80;;;;;;5042096;28;20493;-89
2023/06/08 01:55:56;;;;;;;1999.90;999.90;;;10.90;81.80;;;;;;5037212;28;20072;-89
2023/06/08 01:58:22;;;;;;;1999.90;999.90;;;11.20;82.90;;;;;;5040776;28;20430;-88
2023/06/08 02:00:48;;;;;;;1999.90;999.90;;;11.20;82.50;;;;;;5039168;28;20030;-88
2023/06/08 02:03:13;;;;;;;1999.90;999.90;;;11.10;81.80;;;;;;5040225;28;20514;-88
2023/06/08 02:05:39;;;;;;;1999.90;999.90;;;11.10;82.30;;;;;;5039434;28;20040;-89
2023/06/08 02:08:05;;;;;;;1364.10;841.33;;;11.20;82.10;;;;;;5040431;28;20485;-89
2023/06/08 02:10:30;;;;;;;1999.90;999.90;;;11.10;82.80;;;;;;5041779;28;20080;-88
2023/06/08 02:12:56;;;;;;;1999.90;999.90;;;11.00;82.20;;;;;;5039098;28;20045;-88
2023/06/08 02:15:22;;;;;;;852.30;796.40;;;10.90;82.40;;;;;;5030204;28;20456;-89
2023/06/08 02:17:47;;;;;;;878.60;821.53;;;10.90;83.00;;;;;;5041460;28;20051;-90
2023/06/08 02:20:13;;;;;;;1155.90;861.85;;;10.90;83.20;;;;;;5041009;28;20117;-90
2023/06/08 02:22:39;;;;;;;822.05;769.55;;;10.80;82.70;;;;;;5034369;28;20033;-89
2023/06/08 02:25:07;;;;;;;813.33;761.38;;;10.80;83.10;;;;;;5018565;28;20041;-90
2023/06/08 02:27:36;;;;;;;854.55;799.83;;;10.70;83.70;;;;;;5035160;28;20025;-90
2023/06/08 02:30:05;;;;;;;896.83;837.20;;;10.80;84.00;;;;;;5037582;28;20566;-89
2023/06/08 02:32:32;;;;;;;810.07;759.57;;;10.80;84.00;;;;;;5039621;28;20034;-89
2023/06/08 02:34:59;;;;;;;850.78;797.92;;;10.80;84.10;;;;;;5032700;28;20803;-89
2023/06/08 02:37:25;;;;;;;818.85;766.72;;;10.80;84.10;;;;;;5036844;28;20036;-88
2023/06/08 02:39:51;;;;;;;845.03;792.60;;;10.80;84.00;;;;;;5037250;28;20429;-89
2023/06/08 02:42:20;;;;;;;797.05;748.60;;;10.60;83.80;;;;;;5034314;28;20025;-89
2023/06/08 02:44:46;;;;;;;783.63;736.47;;;10.60;84.40;;;;;;5036897;28;20033;-89
2023/06/08 02:47:13;;;;;;;753.55;709.88;;;10.50;84.30;;;;;;5039918;28;20087;-89
2023/06/08 02:49:39;;;;;;;767.45;723.00;;;10.50;84.20;;;;;;5036817;28;20025;-89
2023/06/08 02:52:07;;;;;;;753.90;709.67;;;10.40;84.90;;;;;;5039308;28;20124;-89
2023/06/08 02:54:33;;;;;;;718.17;677.67;;;10.30;85.20;;;;;;5030146;28;20029;-88
2023/06/08 02:56:58;;;;;;;759.72;716.05;;;10.30;85.50;;;;;;5034159;28;20047;-89
2023/06/08 02:59:24;;;;;;;742.30;699.85;;;10.30;85.40;;;;;;5040769;28;20033;-89
2023/06/08 03:01:53;;;;;;;732.15;689.53;;;10.30;85.70;;;;;;5029199;28;20025;-88
2023/06/08 03:04:23;;;;;;;708.78;669.90;;;10.40;85.90;;;;;;5041600;28;20500;-89
2023/06/08 03:06:55;;;;;;;731.38;690.20;;;10.40;86.30;;;;;;5052265;28;20068;-90
2023/06/08 03:09:25;;;;;;;734.97;694.28;;;10.40;85.60;;;;;;5038498;28;20075;-89
2023/06/08 03:11:51;;;;;;;687.63;650.58;;;10.30;85.50;;;;;;5039204;28;20025;-89
2023/06/08 03:14:18;;;;;;;721.03;680.75;;;10.40;85.80;;;;;;5034481;28;20049;-90
2023/06/08 03:16:45;;;;;;;644.80;611.17;;;10.30;86.10;;;;;;5037657;28;20021;-88
2023/06/08 03:19:12;;;;;;;677.72;642.35;;;10.20;85.90;;;;;;5039700;28;20124;-88
2023/06/08 03:21:38;;;;;;;672.03;637.28;;;10.10;85.60;;;;;;5042504;28;20045;-88
2023/06/08 03:24:04;;;;;;;633.03;600.10;;;9.90;85.70;;;;;;5039744;28;20091;-89
2023/06/08 03:26:30;;;;;;;627.85;594.25;;;9.90;85.50;;;;;;5036420;28;20044;-89
2023/06/08 03:28:56;;;;;;;639.47;607.03;;;9.90;85.30;;;;;;5037018;28;20065;-90
2023/06/08 03:31:22;;;;;;;513.63;490.13;;;9.90;85.50;;;;;;5038342;28;20065;-89
2023/06/08 03:33:48;;;;;;;577.88;549.60;;;9.80;85.40;;;;;;5034985;28;20029;-89
2023/06/08 03:36:15;;;;;;;643.30;609.63;;;9.70;85.50;;;;;;5038689;28;20034;-89
2023/06/08 03:38:41;;;;;;;610.75;580.08;;;9.90;88.70;;;;;;5037117;28;20037;-90
2023/06/08 03:41:08;;;;;;;592.78;562.10;;;9.90;86.70;;;;;;5035254;28;20046;-89
2023/06/08 03:43:35;;;;;;;569.00;540.92;;;9.90;86.10;;;;;;5020669;28;20148;-90
2023/06/08 03:46:01;;;;;;;658.28;622.83;;;10.00;85.90;;;;;;5036357;28;20033;-89
2023/06/08 03:48:26;;;;;;;627.95;594.47;;;10.00;86.90;;;;;;5041183;28;20041;-88
2023/06/08 03:50:52;;;;;;;617.90;586.90;;;10.10;87.30;;;;;;5037740;28;20033;-89
2023/06/08 03:53:18;;;;;;;603.45;572.45;;;10.10;87.80;;;;;;5036833;28;20042;-89
2023/06/08 03:55:44;;;;;;;542.47;516.28;;;10.30;87.40;;;;;;5040876;28;20040;-89
2023/06/08 03:58:12;;;;;;;661.88;626.80;;;10.30;87.70;;;;;;5019329;28;20036;-89
2023/06/08 04:00:38;;;;;;;540.28;512.58;;;10.40;87.70;;;;;;5040141;28;20499;-90
2023/06/08 04:03:05;;;;;;;550.50;522.67;;;10.50;87.30;;;;;;5038209;28;20052;-90
2023/06/08 04:05:30;;;;;;;545.75;519.13;;;10.60;87.30;;;;;;5033427;28;20039;-89
2023/06/08 04:07:58;;;;;;;538.47;512.90;;;10.70;87.80;;;;;;5042193;28;20123;-90
2023/06/08 04:10:23;;;;;;;503.15;479.60;;;10.70;86.80;;;;;;5020132;28;20030;-89
2023/06/08 04:12:49;;;;;;;454.13;433.67;;;10.70;86.70;;;;;;5040167;28;20035;-89
2023/06/08 04:15:15;;;;;;;497.90;475.27;;;10.80;86.20;;;;;;5031851;28;20070;-89
2023/06/08 04:17:41;;;;;;;485.65;462.85;;;10.80;85.50;;;;;;5036696;28;20477;-88
2023/06/08 04:20:10;;;;;;;517.42;492.73;;;10.90;85.40;;;;;;5039225;28;20463;-89
2023/06/08 04:22:36;;;;;;;443.35;424.27;;;11.00;85.60;;;;;;5038953;28;20352;-90
2023/06/08 04:25:02;;;;;;;462.67;441.95;;;11.10;85.00;;;;;;5036569;28;20400;-89
2023/06/08 04:27:28;;;;;;;469.25;447.33;;;11.20;84.90;;;;;;5038824;28;20108;-89
2023/06/08 04:29:53;;;;;;;497.20;473.70;;;11.40;85.10;;;;;;5035037;28;20112;-88
2023/06/08 04:32:19;;;;;;;541.03;514.83;;;11.50;85.50;;;;;;5037592;28;20033;-88
2023/06/08 04:34:45;;;;;;;526.28;500.23;;;11.70;85.00;;;;;;5020643;28;20033;-89
2023/06/08 04:37:11;;;;;;;507.00;482.63;;;11.80;85.40;;;;;;5033737;28;20504;-90
2023/06/08 04:39:38;;;;;;;492.95;469.70;;;11.90;85.00;;;;;;5037477;28;20060;-89
2023/06/08 04:42:05;;;;;;;505.35;481.00;;;12.00;84.40;;;;;;5036858;28;20029;-89
2023/06/08 04:44:33;;;;;;;520.38;496.70;;;12.10;83.80;;;;;;5035682;28;20037;-89
2023/06/08 04:46:59;;;;;;;524.72;500.33;;;12.30;83.20;;;;;;5045489;28;20493;-88
2023/06/08 04:49:31;;;;;;;527.20;502.25;;;12.40;83.70;;;;;;5036770;28;20025;-90
2023/06/08 04:52:00;;;;;;;521.15;496.27;;;12.60;83.20;;;;;;5030322;28;20072;-89
2023/06/08 04:54:27;;;;;;;544.72;517.92;;;12.70;83.10;;;;;;5035430;28;20092;-88
2023/06/08 04:56:59;;;;;;;539.22;512.80;;;12.90;83.00;;;;;;5032982;28;20045;-88
2023/06/08 04:59:28;;;;;;;536.92;510.58;;;12.90;83.00;;;;;;5035415;28;20033;-89
2023/06/08 05:01:56;;;;;;;541.72;515.97;;;13.00;83.70;;;;;;5035095;28;20448;-89
2023/06/08 05:04:22;;;;;;;549.80;523.38;;;13.20;83.20;;;;;;5034783;28;20037;-88
2023/06/08 05:06:48;;;;;;;582.25;555.03;;;13.20;83.30;;;;;;5037604;28;20032;-88
2023/06/08 05:09:14;;;;;;;553.70;527.55;;;13.20;83.00;;;;;;5037005;28;20037;-88
2023/06/08 05:11:40;;;;;;;538.83;513.25;;;13.30;82.80;;;;;;5039009;28;20053;-89
2023/06/08 05:14:10;;;;;;;561.92;534.65;;;13.60;80.90;;;;;;5036946;28;20075;-88
2023/06/08 05:16:37;;;;;;;553.00;526.00;;;13.70;80.70;;;;;;5037914;28;20117;-88
2023/06/08 05:19:03;;;;;;;575.28;545.72;;;13.90;80.50;;;;;;5041328;28;20033;-88
2023/06/08 05:21:29;;;;;;;596.97;567.15;;;14.00;80.30;;;;;;5042316;28;20049;-87
2023/06/08 05:23:55;;;;;;;599.13;567.67;;;14.00;79.90;;;;;;5032271;28;20090;-87
2023/06/08 05:26:23;;;;;;;565.58;538.83;;;14.10;79.70;;;;;;5050737;28;20037;-88
2023/06/08 05:28:49;;;;;;;595.22;564.83;;;14.20;79.20;;;;;;5048282;28;20418;-87
2023/06/08 05:31:15;;;;;;;572.08;545.40;;;14.30;78.50;;;;;;5063043;28;20060;-88
2023/06/08 05:33:40;;;;;;;542.42;516.92;;;14.30;77.20;;;;;;5057423;28;20026;-88
2023/06/08 05:36:06;;;;;;;562.13;535.70;;;14.20;77.80;;;;;;5057110;28;20033;-87
2023/06/08 05:38:32;;;;;;;563.25;536.92;;;14.10;77.50;;;;;;5063026;28;20027;-87
2023/06/08 05:40:58;;;;;;;558.90;533.22;;;14.30;76.70;;;;;;5055814;28;20051;-87
2023/06/08 05:43:24;;;;;;;589.80;561.38;;;14.30;75.90;;;;;;5049815;28;20037;-89
2023/06/08 05:45:49;;;;;;;601.05;568.60;;;14.40;76.40;;;;;;5049238;28;20047;-88
2023/06/08 05:48:15;;;;;;;541.00;515.80;;;14.40;76.10;;;;;;5047965;28;20053;-87
2023/06/08 05:50:41;;;;;;;584.70;555.83;;;14.40;75.20;;;;;;5053035;28;20022;-87
2023/06/08 05:53:06;;;;;;;621.95;590.35;;;14.50;75.00;;;;;;5056881;28;20036;-88
2023/06/08 05:55:32;;;;;;;658.40;621.95;;;14.50;75.50;;;;;;5038369;28;20033;-87
2023/06/08 05:57:58;;;;;;;602.38;572.03;;;14.60;75.80;;;;;;5045808;28;20060;-87
2023/06/08 06:00:23;;;;;;;575.80;547.90;;;14.70;75.90;;;;;;5048733;28;20017;-87
2023/06/08 06:02:49;;;;;;;589.95;560.65;;;14.80;74.70;;;;;;5055809;28;20031;-86
2023/06/08 06:05:15;;;;;;;609.13;579.58;;;14.90;73.20;;;;;;5048318;28;20090;-86
2023/06/08 06:07:41;;;;;;;630.75;597.75;;;14.90;73.90;;;;;;5046498;28;20052;-88
2023/06/08 06:10:07;;;;;;;607.25;576.67;;;15.10;73.60;;;;;;5039866;28;20033;-86
2023/06/08 06:12:33;;;;;;;601.83;572.30;;;15.20;73.00;;;;;;5040800;28;20452;-88
2023/06/08 06:15:00;;;;;;;610.90;579.67;;;15.30;72.90;;;;;;5035951;28;20068;-87
2023/06/08 06:17:26;;;;;;;583.63;554.70;;;15.30;72.40;;;;;;5034970;28;20037;-87
2023/06/08 06:19:51;;;;;;;653.50;619.22;;;15.40;71.10;;;;;;5036085;28;20045;-87
2023/06/08 06:22:17;;;;;;;590.85;561.22;;;15.40;72.20;;;;;;5038373;28;20075;-87
2023/06/08 06:24:43;;;;;;;588.88;560.28;;;15.50;70.40;;;;;;5040184;28;20574;-88
2023/06/08 06:27:11;;;;;;;608.17;577.92;;;15.50;70.50;;;;;;5048000;28;20029;-86
2023/06/08 06:29:37;;;;;;;627.67;594.85;;;15.70;70.80;;;;;;5033657;28;20111;-86
2023/06/08 06:32:03;;;;;;;658.20;621.95;;;15.70;71.40;;;;;;5032091;28;20033;-85
2023/06/08 06:34:29;;;;;;;644.28;609.67;;;15.80;71.20;;;;;;5024384;28;20572;-87
2023/06/08 06:36:56;;;;;;;614.25;582.55;;;16.00;70.90;;;;;;5042096;28;20029;-86
2023/06/08 06:39:22;;;;;;;660.42;625.10;;;16.20;69.90;;;;;;5039243;28;20026;-87
2023/06/08 06:41:48;;;;;;;695.90;658.38;;;16.20;70.60;;;;;;5041587;28;20079;-87
2023/06/08 06:44:14;;;;;;;668.28;632.28;;;16.30;71.00;;;;;;5036202;28;20542;-87
2023/06/08 06:46:40;;;;;;;629.25;597.38;;;16.40;70.50;;;;;;5032408;28;20061;-87
2023/06/08 06:49:06;;;;;;;618.70;586.72;;;16.60;68.90;;;;;;5043656;28;20385;-87
2023/06/08 06:51:32;;;;;;;654.72;621.10;;;16.80;67.60;;;;;;5039394;28;20025;-87
2023/06/08 06:54:01;;;;;;;720.05;676.28;;;16.80;67.50;;;;;;5036409;28;20545;-87
2023/06/08 06:56:26;;;;;;;642.53;608.05;;;17.00;67.80;;;;;;5033510;28;20472;-87
2023/06/08 06:58:52;;;;;;;728.50;687.22;;;17.10;68.50;;;;;;5036586;28;20025;-87
2023/06/08 07:01:18;;;;;;;666.45;630.25;;;17.20;68.40;;;;;;5027437;28;20029;-87
2023/06/08 07:03:44;;;;;;;703.53;662.88;;;17.40;68.50;;;;;;5037884;28;20056;-86
2023/06/08 07:06:11;;;;;;;651.17;614.00;;;17.30;67.10;;;;;;5037381;28;20061;-87
2023/06/08 07:08:37;;;;;;;672.00;636.47;;;17.50;64.20;;;;;;5040224;28;20185;-86
2023/06/08 07:11:02;;;;;;;714.67;674.05;;;17.50;64.10;;;;;;5036967;28;20033;-85
2023/06/08 07:13:28;;;;;;;758.72;713.58;;;17.60;64.50;;;;;;5026241;28;20109;-85
2023/06/08 07:15:54;;;;;;;665.67;627.95;;;17.60;66.50;;;;;;5037729;28;20029;-86
2023/06/08 07:18:20;;;;;;;780.65;734.17;;;17.80;64.30;;;;;;5031402;28;20030;-86
2023/06/08 07:20:46;;;;;;;705.47;665.78;;;17.90;65.90;;;;;;5018077;28;20045;-86
2023/06/08 07:23:12;;;;;;;654.75;619.03;;;18.00;62.50;;;;;;5035514;28;20084;-86
2023/06/08 07:25:38;;;;;;;786.55;739.35;;;18.10;62.20;;;;;;5033491;28;20053;-86
2023/06/08 07:28:05;;;;;;;765.80;720.28;;;18.40;64.10;;;;;;5041561;28;20108;-86
2023/06/08 07:30:31;;;;;;;792.25;743.95;;;18.60;62.10;;;;;;5034043;28;20497;-87
2023/06/08 07:33:00;;;;;;;794.40;745.75;;;18.80;62.70;;;;;;5017049;28;20191;-86
2023/06/08 07:35:26;;;;;;;814.22;762.30;;;18.90;62.40;;;;;;5034423;28;20551;-85
2023/06/08 07:37:52;;;;;;;817.08;766.88;;;18.90;63.20;;;;;;5036563;28;20064;-86
2023/06/08 07:40:18;;;;;;;828.70;776.78;;;19.20;61.90;;;;;;5046867;28;20024;-86
2023/06/08 07:42:44;;;;;;;821.47;770.10;;;19.30;60.30;;;;;;5038725;28;20059;-87
2023/06/08 07:45:11;;;;;;;834.55;781.38;;;19.50;58.90;;;;;;5039193;28;20089;-86
2023/06/08 07:47:38;;;;;;;799.20;750.80;;;19.50;59.70;;;;;;5044492;28;20033;-87
2023/06/08 07:50:08;;;;;;;795.67;747.13;;;19.60;57.70;;;;;;5036301;28;20033;-85
2023/06/08 07:52:33;;;;;;;773.07;728.30;;;19.80;57.50;;;;;;5039229;28;20445;-85
2023/06/08 07:54:59;;;;;;;827.47;775.95;;;20.10;54.00;;;;;;5037776;28;20061;-86
2023/06/08 07:57:26;;;;;;;827.88;775.03;;;20.10;56.60;;;;;;5033576;28;20063;-87
2023/06/08 07:59:51;;;;;;;864.35;806.60;;;19.90;53.40;;;;;;5054505;28;20054;-86
2023/06/08 08:02:17;;;;;;;846.67;792.00;;;19.70;57.50;;;;;;5037310;28;20017;-86
2023/06/08 08:04:43;;;;;;;856.17;798.63;;;19.70;58.70;;;;;;5039720;28;20037;-86
2023/06/08 08:07:08;;;;;;;927.30;858.65;;;19.80;57.00;;;;;;5042173;28;20038;-85
2023/06/08 08:09:35;;;;;;;837.38;784.35;;;20.00;59.00;;;;;;5033558;28;20160;-86
2023/06/08 08:12:00;;;;;;;868.20;811.83;;;20.20;54.70;;;;;;5040511;28;20033;-86
2023/06/08 08:14:26;;;;;;;933.63;868.55;;;20.40;55.00;;;;;;5019111;28;20033;-85
2023/06/08 08:16:52;;;;;;;912.90;849.20;;;20.50;55.30;;;;;;5036356;28;20520;-85
2023/06/08 08:19:18;;;;;;;964.33;894.20;;;20.50;57.00;;;;;;5042379;28;20138;-86
2023/06/08 08:21:43;;;;;;;1027.88;945.40;;;20.60;54.50;;;;;;5038637;28;20049;-87
2023/06/08 08:24:09;;;;;;;1023.22;940.95;;;21.10;53.30;;;;;;5034744;28;20488;-84
2023/06/08 08:26:40;;;;;;;1027.40;947.33;;;21.40;53.70;;;;;;5034554;28;20037;-85
2023/06/08 08:29:09;;;;;;;1238.53;717.33;;;21.30;53.80;;;;;;5017359;28;20100;-85
2023/06/08 08:31:35;;;;;;;1999.90;999.90;;;21.40;49.60;;;;;;5034645;28;20523;-86
2023/06/08 08:34:01;;;;;;;1999.90;999.90;;;21.70;53.10;;;;;;5038497;28;20041;-86
2023/06/08 08:36:27;;;;;;;1999.90;999.90;;;22.00;47.10;;;;;;5015448;28;20496;-85
2023/06/08 08:38:53;;;;;;;1999.90;999.90;;;22.30;46.60;;;;;;5023990;28;20036;-86
2023/06/08 08:41:25;;;;;;;1999.90;999.90;;;22.60;49.30;;;;;;5038718;28;20082;-85
2023/06/08 08:44:01;;;;;;;1999.90;999.90;;;22.70;45.70;;;;;;5068216;28;20056;-86
2023/06/08 08:46:33;;;;;;;1999.90;999.90;;;22.80;46.70;;;;;;5053339;28;20029;-85
2023/06/08 08:49:04;;;;;;;1999.90;999.90;;;22.70;43.60;;;;;;5029301;28;20034;-86
2023/06/08 08:51:32;;;;;;;1999.90;999.90;;;22.70;45.70;;;;;;5035754;28;20116;-87
2023/06/08 08:54:02;;;;;;;1999.90;999.90;;;22.70;45.70;;;;;;5035248;28;20044;-86
2023/06/08 08:56:29;;;;;;;;;;;22.80;42.80;;;;;;5028533;28;20029;-85
2023/06/08 08:58:55;;;;;;;1999.90;999.90;;;22.90;44.30;;;;;;5038027;28;20311;-86
2023/06/08 09:01:22;;;;;;;1999.90;999.90;;;23.10;46.50;;;;;;5012654;28;20079;-86
2023/06/08 09:03:48;;;;;;;1999.90;999.90;;;23.30;42.70;;;;;;5022854;28;20079;-85
2023/06/08 09:06:14;;;;;;;1999.90;999.90;;;23.70;42.80;;;;;;5031600;28;20033;-85
2023/06/08 09:08:40;;;;;;;1999.90;999.90;;;23.50;44.60;;;;;;5024341;28;20037;-85
2023/06/08 09:11:09;;;;;;;1999.90;999.90;;;23.60;43.30;;;;;;5040176;28;20404;-85
2023/06/08 09:13:35;;;;;;;1999.90;999.90;;;23.80;40.90;;;;;;5034820;28;20033;-88
2023/06/08 09:16:14;;;;;;;1999.90;999.90;;;24.00;42.00;;;;;;5032321;28;20037;-86
2023/06/08 09:18:41;;;;;;;1999.90;999.90;;;24.30;39.20;;;;;;5033379;28;20424;-85
2023/06/08 09:21:26;;;;;;;1999.90;999.90;;;24.40;41.20;;;;;;5026753;28;20046;-85
2023/06/08 09:24:16;;;;;;;1999.90;999.90;;;24.70;37.50;;;;;;5010699;28;20042;-85
2023/06/08 09:26:53;;;;;;;1999.90;999.90;;;24.80;37.40;;;;;;5019765;28;20741;-85
2023/06/08 09:29:40;;;;;;;1999.90;999.90;;;24.80;38.80;;;;;;5029032;28;20053;-85
2023/06/08 09:32:07;;;;;;;1999.90;999.90;;;25.30;37.70;;;;;;5027260;28;20033;-85
2023/06/08 09:34:51;;;;;;;1999.90;999.90;;;25.30;38.80;;;;;;5026342;28;20040;-85
2023/06/08 09:37:18;;;;;;;1999.90;999.90;;;24.80;35.00;;;;;;5032905;28;20025;-85
2023/06/08 09:39:45;;;;;;;1999.90;999.90;;;24.70;35.40;;;;;;5030619;28;20033;-86
2023/06/08 09:42:11;;;;;;;1999.90;999.90;;;24.90;35.80;;;;;;5033156;28;20056;-87
2023/06/08 09:44:37;;;;;;;1999.90;999.90;;;24.50;36.40;;;;;;5032535;28;20511;-85
2023/06/08 09:47:23;;;;;;;1999.90;999.90;;;24.90;37.60;;;;;;5026774;28;20509;-86
2023/06/08 09:49:52;;;;;;;1999.90;999.90;;;25.20;34.70;;;;;;5032387;28;20026;-87
2023/06/08 09:52:22;;;;;;;1999.90;999.90;;;25.40;35.80;;;;;;5026679;28;20116;-85
2023/06/08 09:54:49;;;;;;;1999.90;999.90;;;25.80;35.40;;;;;;5047956;28;20044;-85
2023/06/08 09:57:16;;;;;;;1999.90;999.90;;;25.80;32.00;;;;;;5027267;28;20156;-85
2023/06/08 10:00:08;;;;;;;1999.90;999.90;;;25.40;31.80;;;;;;5030860;28;20040;-85
2023/06/08 10:02:39;;;;;;;1999.90;999.90;;;25.70;31.50;;;;;;5042572;28;20396;-85
2023/06/08 10:05:10;;;;;;;1999.90;999.90;;;26.00;32.20;;;;;;5030830;28;20044;-87
2023/06/08 10:07:37;;;;;;;1999.90;999.90;;;26.20;32.70;;;;;;5036691;28;20044;-85
2023/06/08 10:10:14;;;;;;;1999.90;999.90;;;26.20;32.20;;;;;;5039094;28;20048;-85
2023/06/08 10:12:41;;;;;;;1999.90;999.90;;;26.60;30.50;;;;;;5051197;28;20025;-84
2023/06/08 10:15:08;;;;;;;1999.90;999.90;;;26.80;29.30;;;;;;5040918;28;20030;-84
2023/06/08 10:17:34;;;;;;;1999.90;999.90;;;26.30;32.80;;;;;;5032050;28;20053;-85
2023/06/08 10:20:00;;;;;;;1999.90;999.90;;;26.40;31.60;;;;;;5031730;28;20103;-85
2023/06/08 10:22:26;;;;;;;1999.90;999.90;;;26.90;31.20;;;;;;5017529;28;20462;-85
2023/06/08 10:24:53;;;;;;;1999.90;999.90;;;27.40;28.80;;;;;;5027408;28;20033;-85
2023/06/08 10:27:24;;;;;;;1999.90;999.90;;;27.80;29.10;;;;;;5032784;28;20026;-85
2023/06/08 10:29:55;;;;;;;1999.90;999.90;;;27.80;33.40;;;;;;5034038;28;20083;-85
2023/06/08 10:32:32;;;;;;;1999.90;999.90;;;27.80;30.30;;;;;;5035304;28;20386;-85
2023/06/08 10:34:58;;;;;;;1999.90;999.90;;;27.80;31.00;;;;;;5037404;28;20039;-84
2023/06/08 10:37:29;;;;;;;1999.90;999.90;;;28.40;29.90;;;;;;5035805;28;20037;-85
2023/06/08 10:39:56;;;;;;;1999.90;999.90;;;28.20;28.30;;;;;;5037334;28;20104;-84
2023/06/08 10:42:22;;;;;;;1999.90;999.90;;;28.20;28.70;;;;;;5038884;28;20037;-85
2023/06/08 10:44:58;;;;;;;1999.90;999.90;;;28.00;29.60;;;;;;5033144;28;20029;-85
2023/06/08 10:47:25;;;;;;;1999.90;999.90;;;28.30;28.50;;;;;;5025278;28;20025;-85
2023/06/08 10:50:02;;;;;;;1999.90;999.90;;;27.90;29.00;;;;;;5030014;28;20461;-85
2023/06/08 10:52:29;;;;;;;1999.90;999.90;;;27.10;28.40;;;;;;5038656;28;20376;-85
2023/06/08 10:55:08;;;;;;;1999.90;999.90;;;28.00;26.70;;;;;;5042984;28;20247;-85
2023/06/08 10:57:52;;;;;;;1999.90;999.90;;;29.60;28.00;;;;;;5040294;28;20021;-85
2023/06/08 11:00:28;;;;;;;1999.90;999.90;;;29.50;26.40;;;;;;5042923;28;20083;-85
2023/06/08 11:03:16;;;;;;;1999.90;999.90;;;29.80;24.00;;;;;;5038504;28;20017;-84
2023/06/08 11:05:43;;;;;;;1999.90;999.90;;;30.20;23.50;;;;;;5036874;28;20026;-84
2023/06/08 11:08:10;;;;;;;1999.90;999.90;;;29.30;26.00;;;;;;5034957;28;20038;-85
2023/06/08 11:10:39;;;;;;;1999.90;999.90;;;27.60;26.10;;;;;;5028995;28;20056;-85
2023/06/08 11:13:16;;;;;;;1999.90;999.90;;;28.00;26.50;;;;;;5031614;28;20026;-85
2023/06/08 11:15:43;;;;;;;1999.90;999.90;;;29.30;24.80;;;;;;5036681;28;20034;-85
2023/06/08 11:18:10;;;;;;;1999.90;999.90;;;28.80;25.40;;;;;;5023751;28;20088;-86
2023/06/08 11:20:37;;;;;;;1999.90;999.90;;;28.50;26.70;;;;;;5033243;28;20080;-86
2023/06/08 11:23:06;;;;;;;1999.90;999.90;;;27.70;29.80;;;;;;5040224;28;20026;-85
2023/06/08 11:25:32;;;;;;;1999.90;999.90;;;27.40;29.30;;;;;;5041077;28;20025;-86
2023/06/08 11:27:58;;;;;;;1999.90;999.90;;;27.30;27.90;;;;;;5035770;28;20029;-87
2023/06/08 11:30:28;;;;;;;1999.90;999.90;;;27.30;29.40;;;;;;5041166;28;20111;-87
2023/06/08 11:32:56;;;;;;;1999.90;999.90;;;27.20;29.40;;;;;;5049974;28;20033;-87
2023/06/08 11:35:22;;;;;;;1999.90;999.90;;;27.70;27.20;;;;;;5038058;28;20053;-85
2023/06/08 11:37:53;;;;;;;1999.90;999.90;;;27.00;29.70;;;;;;5039154;28;20120;-86
2023/06/08 11:40:19;;;;;;;1999.90;999.90;;;27.30;29.90;;;;;;5034753;28;20029;-86
2023/06/08 11:42:45;;;;;;;1999.90;999.90;;;27.20;27.90;;;;;;5038717;28;20032;-85
2023/06/08 11:45:12;;;;;;;1999.90;999.90;;;26.90;28.60;;;;;;5038800;28;20064;-86
2023/06/08 11:47:43;;;;;;;1999.90;999.90;;;26.60;27.70;;;;;;5033522;28;20045;-86
2023/06/08 11:50:10;;;;;;;1999.90;999.90;;;26.70;29.30;;;;;;5033519;28;20041;-85
2023/06/08 11:52:41;;;;;;;1999.90;999.90;;;27.00;27.40;;;;;;5039752;28;20107;-86
2023/06/08 11:55:15;;;;;;;1999.90;999.90;;;27.10;26.40;;;;;;5033167;28;20033;-86
2023/06/08 11:57:50;;;;;;;1999.90;999.90;;;27.30;26.20;;;;;;5032293;28;20033;-86
2023/06/08 12:00:20;;;;;;;1999.90;999.90;;;27.00;26.00;;;;;;5030898;28;20041;-85
2023/06/08 12:02:50;;;;;;;1999.90;999.90;;;27.40;26.50;;;;;;5025955;28;20113;-86
2023/06/08 12:05:19;;;;;;;1999.90;999.90;;;27.50;27.50;;;;;;5033203;28;20103;-86
2023/06/08 12:08:11;;;;;;;1999.90;999.90;;;27.30;26.70;;;;;;5029351;28;20025;-88
2023/06/08 12:10:39;;;;;;;1999.90;999.90;;;29.90;27.00;;;;;;5036454;28;20118;-86